Time;durP1;ratioP1;P1;durP2;ratioP2;P2;SDS_P1;SDS_P2;PMS_P1;PMS_P2;Temp;Humidity;BMP_temperature;BMP_pressure;BME280_temperature;BME280_humidity;BME280_pressure;Samples;Min_cycle;Max_cycle;Signal;HPM_P1;HPM_P2
2021/10/12 00:00:45;;;;;;;36.47;21.17;;;8.00;99.90;;;;;;6243816;23;20182;-90
2021/10/12 00:03:32;;;;;;;35.30;20.90;;;7.90;99.90;;;;;;6221634;23;20024;-92
2021/10/12 00:06:19;;;;;;;34.83;21.00;;;7.80;99.90;;;;;;6243850;23;20024;-91
2021/10/12 00:09:07;;;;;;;44.30;22.95;;;7.70;99.90;;;;;;6221386;23;20024;-91
2021/10/12 00:11:55;;;;;;;43.13;23.42;;;7.60;99.90;;;;;;6242997;23;20082;-90
2021/10/12 00:14:42;;;;;;;36.40;21.60;;;7.60;99.90;;;;;;6220229;23;20024;-91
2021/10/12 00:17:32;;;;;;;42.97;25.10;;;7.50;99.90;;;;;;6224253;23;20356;-91
2021/10/12 00:20:19;;;;;;;45.08;26.05;;;7.40;99.90;;;;;;6221599;23;20089;-90
2021/10/12 00:23:06;;;;;;;47.08;25.33;;;7.40;99.90;;;;;;6245100;23;20483;-91
2021/10/12 00:25:54;;;;;;;46.53;25.60;;;7.30;99.90;;;;;;6242455;23;20020;-90
2021/10/12 00:28:41;;;;;;;42.90;24.77;;;7.30;99.90;;;;;;6201308;23;20023;-90
2021/10/12 00:31:29;;;;;;;45.67;25.33;;;7.20;99.90;;;;;;6242969;23;20020;-90
2021/10/12 00:34:19;;;;;;;47.42;25.88;;;7.20;99.90;;;;;;6243181;23;20031;-90
2021/10/12 00:37:06;;;;;;;52.05;27.60;;;7.20;99.90;;;;;;6243206;23;20031;-91
2021/10/12 00:39:53;;;;;;;52.97;27.42;;;7.20;99.90;;;;;;6244158;23;20042;-91
2021/10/12 00:42:40;;;;;;;53.72;28.35;;;7.20;99.90;;;;;;6200339;23;20540;-91
2021/10/12 00:45:28;;;;;;;47.20;27.42;;;7.20;99.90;;;;;;6243371;23;20162;-93
2021/10/12 00:48:15;;;;;;;56.25;28.98;;;7.20;99.90;;;;;;6242210;23;20051;-90
2021/10/12 00:51:02;;;;;;;51.35;28.60;;;7.10;99.90;;;;;;6200791;23;20031;-91
2021/10/12 00:53:50;;;;;;;58.55;30.15;;;7.10;99.90;;;;;;6242323;23;20035;-92
2021/10/12 00:56:37;;;;;;;52.97;29.05;;;7.10;99.90;;;;;;6241523;23;20071;-90
2021/10/12 00:59:25;;;;;;;60.08;31.58;;;7.10;99.90;;;;;;6241472;23;20117;-91
2021/10/12 01:02:12;;;;;;;60.28;31.20;;;7.10;99.90;;;;;;6244567;23;20028;-89
2021/10/12 01:05:00;;;;;;;53.40;31.17;;;7.20;99.90;;;;;;6200454;23;20020;-91
2021/10/12 01:07:48;;;;;;;64.05;30.80;;;7.20;99.90;;;;;;6223477;23;20028;-91
2021/10/12 01:10:37;;;;;;;58.55;31.13;;;7.20;99.90;;;;;;6242999;23;20020;-91
2021/10/12 01:13:28;;;;;;;59.17;31.98;;;7.20;99.90;;;;;;6241729;23;20109;-90
2021/10/12 01:16:16;;;;;;;61.88;31.33;;;7.20;99.90;;;;;;6243162;23;20526;-91
2021/10/12 01:19:08;;;;;;;56.85;31.17;;;7.20;99.90;;;;;;6242065;23;20131;-91
2021/10/12 01:21:55;;;;;;;63.75;32.55;;;7.30;99.90;;;;;;6242234;23;20060;-91
2021/10/12 01:24:42;;;;;;;59.95;29.63;;;7.20;99.90;;;;;;6221695;23;20109;-89
2021/10/12 01:27:30;;;;;;;59.72;30.33;;;7.20;99.90;;;;;;6241614;23;20042;-91
2021/10/12 01:30:17;;;;;;;56.42;28.77;;;7.10;99.90;;;;;;6221602;23;20036;-91
2021/10/12 01:33:08;;;;;;;58.40;30.35;;;7.10;99.90;;;;;;6199130;23;20120;-91
2021/10/12 01:35:56;;;;;;;61.20;31.13;;;7.00;99.90;;;;;;6241747;23;20024;-90
2021/10/12 01:38:43;;;;;;;57.50;29.45;;;7.10;99.90;;;;;;6241802;23;20082;-91
2021/10/12 01:41:30;;;;;;;59.28;30.95;;;7.00;99.90;;;;;;6223682;23;20408;-91
2021/10/12 01:44:18;;;;;;;56.65;29.83;;;7.00;99.90;;;;;;6223321;23;20035;-89
2021/10/12 01:47:08;;;;;;;62.65;30.83;;;7.00;99.90;;;;;;6240760;23;20487;-90
2021/10/12 01:49:56;;;;;;;57.95;31.23;;;6.90;99.90;;;;;;6180422;23;20102;-90
2021/10/12 01:52:43;;;;;;;59.88;32.78;;;6.90;99.90;;;;;;6242392;23;20082;-90
2021/10/12 01:55:30;;;;;;;59.25;30.27;;;6.80;99.90;;;;;;6198921;23;20032;-91
2021/10/12 01:58:18;;;;;;;57.08;31.92;;;6.80;99.90;;;;;;6241377;23;20109;-90
2021/10/12 02:01:05;;;;;;;65.10;32.20;;;6.70;99.90;;;;;;6222911;23;20086;-90
2021/10/12 02:03:53;;;;;;;65.22;32.03;;;6.70;99.90;;;;;;6234719;23;20035;-89
2021/10/12 02:06:41;;;;;;;65.57;32.95;;;6.70;99.90;;;;;;6257778;23;20024;-90
2021/10/12 02:09:30;;;;;;;68.53;34.38;;;6.70;99.90;;;;;;6253198;23;20020;-90
2021/10/12 02:12:17;;;;;;;66.57;35.70;;;6.70;99.90;;;;;;6242437;23;20024;-90
2021/10/12 02:15:11;;;;;;;72.40;35.30;;;6.80;99.90;;;;;;6201850;23;20154;-90
2021/10/12 02:17:58;;;;;;;68.82;35.17;;;6.80;99.90;;;;;;6219553;23;20083;-90
2021/10/12 02:20:46;;;;;;;70.90;37.10;;;6.80;99.90;;;;;;6242775;23;20154;-90
2021/10/12 02:23:34;;;;;;;77.28;38.20;;;6.90;99.90;;;;;;6221693;23;20048;-89
2021/10/12 02:26:21;;;;;;;74.43;36.10;;;6.90;99.90;;;;;;6220879;23;20403;-88
2021/10/12 02:29:11;;;;;;;68.07;34.45;;;7.00;99.90;;;;;;6222390;23;20162;-91
2021/10/12 02:31:58;;;;;;;75.40;35.78;;;7.00;99.90;;;;;;6244020;23;20028;-90
2021/10/12 02:34:47;;;;;;;73.88;35.38;;;7.00;99.90;;;;;;6243792;23;20097;-86
2021/10/12 02:37:36;;;;;;;66.60;34.70;;;7.00;99.90;;;;;;6243659;23;20036;-90
2021/10/12 02:40:23;;;;;;;66.82;33.42;;;7.10;99.90;;;;;;6221518;23;20032;-90
2021/10/12 02:43:10;;;;;;;63.65;33.72;;;7.10;99.90;;;;;;6244359;23;20102;-90
2021/10/12 02:45:58;;;;;;;67.10;32.70;;;7.10;99.90;;;;;;6244613;23;20335;-90
2021/10/12 02:48:47;;;;;;;59.28;33.88;;;7.20;99.90;;;;;;6242786;23;20034;-90
2021/10/12 02:51:37;;;;;;;64.88;33.65;;;7.20;99.90;;;;;;6224264;23;20035;-91
2021/10/12 02:54:27;;;;;;;64.80;32.72;;;7.20;99.90;;;;;;6203830;23;20127;-91
2021/10/12 02:57:14;;;;;;;57.30;31.55;;;7.20;99.90;;;;;;6224451;23;20039;-91
2021/10/12 03:00:04;;;;;;;52.75;30.35;;;7.20;99.90;;;;;;6199355;23;20110;-90
2021/10/12 03:02:52;;;;;;;61.17;31.58;;;7.20;99.90;;;;;;6243840;23;20024;-89
2021/10/12 03:05:44;;;;;;;55.08;31.25;;;7.20;99.90;;;;;;6220005;23;20020;-90
2021/10/12 03:08:32;;;;;;;55.08;30.65;;;7.20;99.90;;;;;;6242900;23;20043;-90
2021/10/12 03:11:19;;;;;;;63.00;31.35;;;7.20;99.90;;;;;;6223538;23;20020;-90
2021/10/12 03:14:06;;;;;;;52.53;29.52;;;7.20;99.90;;;;;;6242388;23;20052;-89
2021/10/12 03:16:53;;;;;;;54.65;29.95;;;7.20;99.90;;;;;;6243276;23;20103;-90
2021/10/12 03:19:41;;;;;;;59.15;30.30;;;7.20;99.90;;;;;;6221457;23;20035;-91
2021/10/12 03:22:28;;;;;;;54.97;30.00;;;7.20;99.90;;;;;;6224017;23;20039;-90
2021/10/12 03:25:16;;;;;;;59.22;29.77;;;7.10;99.90;;;;;;6203565;23;20040;-90
2021/10/12 03:28:05;;;;;;;54.60;28.88;;;7.10;99.90;;;;;;6242597;23;20032;-88
2021/10/12 03:30:52;;;;;;;56.03;29.55;;;7.10;99.90;;;;;;6221769;23;20032;-89
2021/10/12 03:33:40;;;;;;;58.78;30.90;;;7.10;99.90;;;;;;6242749;23;20039;-90
2021/10/12 03:36:27;;;;;;;57.80;28.67;;;7.10;99.90;;;;;;6243521;23;20055;-92
2021/10/12 03:39:14;;;;;;;56.38;28.90;;;7.10;99.90;;;;;;6221229;23;20031;-89
2021/10/12 03:42:01;;;;;;;51.92;28.02;;;7.10;99.90;;;;;;6222336;23;20034;-90
2021/10/12 03:44:49;;;;;;;51.30;27.58;;;7.10;99.90;;;;;;6221742;23;20020;-91
2021/10/12 03:47:37;;;;;;;54.70;28.20;;;7.10;99.90;;;;;;6228484;23;20028;-90
2021/10/12 03:50:25;;;;;;;53.15;28.45;;;7.10;99.90;;;;;;6211996;23;20070;-89
2021/10/12 03:53:12;;;;;;;53.20;28.65;;;7.20;99.90;;;;;;6210078;23;20020;-90
2021/10/12 03:56:02;;;;;;;52.08;29.05;;;7.20;99.90;;;;;;6222435;23;20149;-91
2021/10/12 03:58:53;;;;;;;46.08;28.02;;;7.30;99.90;;;;;;6244001;23;20117;-90
2021/10/12 04:02:08;;;;;;;48.15;25.88;;;7.20;99.90;;;;;;6244445;23;20331;-90
2021/10/12 04:04:55;;;;;;;47.45;25.30;;;7.30;99.90;;;;;;6204369;23;20031;-89
2021/10/12 04:07:46;;;;;;;47.25;25.40;;;7.30;99.90;;;;;;6204382;23;20034;-91
2021/10/12 04:10:35;;;;;;;47.05;25.63;;;7.30;99.90;;;;;;6203533;23;20024;-90
2021/10/12 04:13:29;;;;;;;46.92;24.30;;;7.40;99.90;;;;;;6205867;23;20028;-89
2021/10/12 04:16:16;;;;;;;43.83;24.10;;;7.40;99.90;;;;;;6202052;23;20039;-91
2021/10/12 04:19:04;;;;;;;42.95;24.50;;;7.40;99.90;;;;;;6221334;23;20399;-90
2021/10/12 04:21:51;;;;;;;41.85;23.83;;;7.40;99.90;;;;;;6201587;23;20091;-90
2021/10/12 04:24:39;;;;;;;39.40;22.50;;;7.40;99.90;;;;;;6220997;23;20024;-90
2021/10/12 04:27:27;;;;;;;42.47;23.52;;;7.40;99.90;;;;;;6224953;23;20024;-91
2021/10/12 04:30:14;;;;;;;37.33;23.80;;;7.40;99.90;;;;;;6222715;23;20078;-90
2021/10/12 04:33:02;;;;;;;35.30;21.52;;;7.40;99.90;;;;;;6224930;23;20027;-90
2021/10/12 04:35:51;;;;;;;40.53;20.90;;;7.40;99.90;;;;;;6253044;23;20024;-90
2021/10/12 04:38:39;;;;;;;34.92;21.25;;;7.40;99.90;;;;;;6224330;23;20036;-90
2021/10/12 04:41:26;;;;;;;39.83;20.80;;;7.40;99.90;;;;;;6247425;23;20028;-89
2021/10/12 04:44:13;;;;;;;37.28;21.02;;;7.40;99.90;;;;;;6203711;23;20455;-87
2021/10/12 04:47:01;;;;;;;40.42;21.83;;;7.40;99.90;;;;;;6222606;23;20023;-85
2021/10/12 04:49:48;;;;;;;37.15;21.75;;;7.40;99.90;;;;;;6223434;23;20055;-87
2021/10/12 04:52:37;;;;;;;35.97;22.05;;;7.40;99.90;;;;;;6222269;23;20400;-86
2021/10/12 04:55:24;;;;;;;43.15;23.10;;;7.40;99.90;;;;;;6225099;23;20042;-86
2021/10/12 04:58:11;;;;;;;41.15;23.05;;;7.30;99.90;;;;;;6222752;23;20035;-89
2021/10/12 05:01:01;;;;;;;39.55;22.38;;;7.30;99.90;;;;;;6223384;23;20042;-86
2021/10/12 05:03:49;;;;;;;43.35;23.75;;;7.30;99.90;;;;;;6224327;23;20039;-87
2021/10/12 05:06:38;;;;;;;46.90;23.80;;;7.30;99.90;;;;;;6241828;23;20076;-88
2021/10/12 05:09:26;;;;;;;42.45;24.58;;;7.30;99.90;;;;;;6219620;23;20024;-89
2021/10/12 05:12:15;;;;;;;47.95;25.35;;;7.30;99.90;;;;;;6221691;23;20034;-89
2021/10/12 05:15:03;;;;;;;41.22;24.27;;;7.30;99.90;;;;;;6200548;23;20031;-88
2021/10/12 05:17:52;;;;;;;50.28;25.40;;;7.30;99.90;;;;;;6240607;23;20118;-86
2021/10/12 05:20:39;;;;;;;45.20;24.33;;;7.30;99.90;;;;;;6218687;23;20054;-87
2021/10/12 05:23:29;;;;;;;41.78;24.73;;;7.20;99.90;;;;;;6241087;23;20032;-87
2021/10/12 05:26:17;;;;;;;51.38;26.40;;;7.20;99.90;;;;;;6203345;23;20027;-88
2021/10/12 05:29:06;;;;;;;49.92;25.70;;;7.20;99.90;;;;;;6221273;23;20083;-89
2021/10/12 05:31:56;;;;;;;45.60;26.20;;;7.20;99.90;;;;;;6220112;23;20028;-87
2021/10/12 05:34:43;;;;;;;47.85;26.58;;;7.20;99.90;;;;;;6221331;23;20028;-89
2021/10/12 05:37:31;;;;;;;57.28;28.75;;;7.20;99.90;;;;;;6243331;23;20099;-87
2021/10/12 05:40:18;;;;;;;52.97;27.25;;;7.20;99.90;;;;;;6242457;23;20035;-90
2021/10/12 05:43:15;;;;;;;49.20;27.83;;;7.20;99.90;;;;;;6216568;23;20044;-90
2021/10/12 05:46:25;;;;;;;;;;;;;;;;;;;;;
2021/10/12 05:49:36;;;;;;;52.30;28.88;;;7.20;99.90;;;;;;6241397;23;20039;-90
2021/10/12 05:53:01;;;;;;;61.65;29.77;;;7.20;99.90;;;;;;6224533;23;20051;-90
2021/10/12 05:56:39;;;;;;;56.50;29.00;;;7.20;99.90;;;;;;6228228;23;20024;-89
2021/10/12 05:59:34;;;;;;;56.28;29.75;;;7.20;99.90;;;;;;6229963;23;20094;-89
2021/10/12 06:02:24;;;;;;;56.60;29.30;;;7.10;99.90;;;;;;6223180;23;20096;-90
2021/10/12 06:05:14;;;;;;;55.22;29.38;;;7.20;99.90;;;;;;6222508;23;20107;-90
2021/10/12 06:08:12;;;;;;;62.85;30.00;;;7.20;99.90;;;;;;6221994;23;20315;-89
2021/10/12 06:11:04;;;;;;;61.67;28.52;;;7.20;99.90;;;;;;6221534;23;20126;-89
2021/10/12 06:13:54;;;;;;;51.67;23.60;;;7.10;99.90;;;;;;6238183;23;20031;-90
2021/10/12 06:16:43;;;;;;;59.50;29.50;;;7.10;99.90;;;;;;6205134;23;20040;-89
2021/10/12 06:19:33;;;;;;;51.35;28.50;;;7.20;99.90;;;;;;6191009;23;20518;-89
2021/10/12 06:22:22;;;;;;;47.22;21.85;;;7.20;99.90;;;;;;6192593;23;20387;-90
2021/10/12 06:25:13;;;;;;;57.78;29.13;;;7.30;99.90;;;;;;6173433;23;20020;-90
2021/10/12 06:28:36;;;;;;;;;;;;;;;;;;;;;
2021/10/12 06:32:35;;;;;;;57.33;29.88;;;7.20;99.90;;;;;;6214181;23;20025;-91
2021/10/12 06:35:50;;;;;;;55.55;28.50;;;7.30;99.90;;;;;;6198869;23;20141;-91
2021/10/12 06:39:25;;;;;;;64.60;29.27;;;7.30;99.90;;;;;;6166342;23;20040;-91
2021/10/12 06:42:48;;;;;;;52.95;27.40;;;7.30;99.90;;;;;;6215216;23;20336;-91
2021/10/12 06:46:05;;;;;;;58.78;28.13;;;7.30;99.90;;;;;;6214352;23;20095;-89
2021/10/12 06:48:52;;;;;;;59.40;27.60;;;7.30;99.90;;;;;;6175413;23;20120;-89
2021/10/12 06:51:46;;;;;;;63.63;29.33;;;7.30;99.90;;;;;;6172647;23;20113;-87
2021/10/12 06:54:48;;;;;;;57.70;30.25;;;7.30;99.90;;;;;;6189948;23;20028;-88
2021/10/12 06:57:48;;;;;;;59.63;29.40;;;7.40;99.90;;;;;;6207182;23;20299;-89
2021/10/12 07:00:38;;;;;;;60.53;29.25;;;7.40;99.90;;;;;;6176547;23;20028;-88
2021/10/12 07:03:37;;;;;;;;;;;;;;;;;;;;;
2021/10/12 07:06:33;;;;;;;59.30;27.83;;;7.40;99.90;;;;;;6209035;23;20020;-89
2021/10/12 07:09:27;;;;;;;61.70;28.35;;;7.40;99.90;;;;;;6215799;23;20025;-89
2021/10/12 07:12:38;;;;;;;56.33;29.17;;;7.30;99.90;;;;;;6193186;23;20107;-90
2021/10/12 07:15:46;;;;;;;55.58;28.02;;;7.30;99.90;;;;;;6236774;23;20030;-90
2021/10/12 07:19:06;;;;;;;65.00;30.98;;;7.30;99.90;;;;;;6216008;23;20028;-88
2021/10/12 07:22:07;;;;;;;60.78;31.08;;;7.30;99.90;;;;;;6243310;23;20387;-89
2021/10/12 07:25:12;;;;;;;69.00;32.88;;;7.40;99.90;;;;;;6211809;23;20024;-89
2021/10/12 07:28:31;;;;;;;60.13;30.27;;;7.40;99.90;;;;;;6243310;23;20024;-88
2021/10/12 07:31:32;;;;;;;64.82;31.85;;;7.40;99.90;;;;;;6242089;23;20092;-89
2021/10/12 07:34:21;;;;;;;61.92;31.60;;;7.40;99.90;;;;;;6241771;23;20438;-90
2021/10/12 07:37:10;;;;;;;64.85;32.42;;;7.40;99.90;;;;;;6221122;23;20350;-89
2021/10/12 07:39:59;;;;;;;55.70;28.50;;;7.50;99.90;;;;;;6242885;23;20024;-90
2021/10/12 07:42:46;;;;;;;57.92;30.55;;;7.50;99.90;;;;;;6221929;23;20358;-90
2021/10/12 07:45:34;;;;;;;61.28;30.90;;;7.50;99.90;;;;;;6237797;23;20117;-90
2021/10/12 07:48:25;;;;;;;58.17;30.40;;;7.50;99.90;;;;;;6220926;23;20032;-89
2021/10/12 07:51:14;;;;;;;57.33;30.27;;;7.50;99.90;;;;;;6219728;23;20025;-89
2021/10/12 07:54:11;;;;;;;;;;;;;;;;;;;;;
2021/10/12 07:57:19;;;;;;;65.45;30.08;;;7.50;99.90;;;;;;6228283;23;20118;-90
2021/10/12 08:00:12;;;;;;;64.68;30.17;;;7.50;99.90;;;;;;6220921;23;20100;-89
2021/10/12 08:03:16;;;;;;;56.22;29.10;;;7.60;99.90;;;;;;6220902;23;20100;-92
2021/10/12 08:06:28;;;;;;;65.13;29.00;;;7.70;99.90;;;;;;6238814;23;20032;-90
2021/10/12 08:09:38;;;;;;;68.30;30.45;;;7.60;99.90;;;;;;6221533;23;20043;-91
2021/10/12 08:12:52;;;;;;;56.78;28.60;;;7.60;99.90;;;;;;6224491;23;20415;-90
2021/10/12 08:15:53;;;;;;;55.67;28.05;;;7.60;99.90;;;;;;6220823;23;20072;-92
2021/10/12 08:18:51;;;;;;;;;;;;;;;;;;;;;
2021/10/12 08:21:45;;;;;;;51.90;28.77;;;7.70;99.90;;;;;;6243882;23;20035;-91
2021/10/12 08:24:33;;;;;;;58.80;27.98;;;7.70;99.90;;;;;;6221451;23;20024;-90
2021/10/12 08:27:29;;;;;;;52.75;28.92;;;7.80;99.90;;;;;;6243964;23;20031;-90
2021/10/12 08:30:19;;;;;;;45.90;25.30;;;7.90;99.90;;;;;;6222955;23;20028;-90
2021/10/12 08:33:27;;;;;;;46.30;23.98;;;8.10;99.90;;;;;;6222512;23;20024;-90
2021/10/12 08:36:25;;;;;;;47.35;24.55;;;8.10;99.90;;;;;;6244272;23;20478;-90
2021/10/12 08:39:41;;;;;;;36.25;20.25;;;8.30;99.90;;;;;;6226485;23;20102;-89
2021/10/12 08:42:45;;;;;;;26.73;16.42;;;8.50;99.90;;;;;;6224168;23;20031;-91
2021/10/12 08:45:48;;;;;;;31.27;17.95;;;8.60;99.90;;;;;;6225750;23;20058;-89
2021/10/12 08:48:37;;;;;;;29.05;15.02;;;8.80;99.90;;;;;;6230339;23;20272;-89
2021/10/12 08:51:34;;;;;;;28.17;14.90;;;8.90;99.90;;;;;;6208796;23;20407;-90
2021/10/12 08:54:43;;;;;;;25.25;15.10;;;9.00;99.90;;;;;;6221735;23;20032;-89
2021/10/12 08:57:58;;;;;;;21.10;14.10;;;9.30;99.90;;;;;;6225576;23;20032;-87
2021/10/12 09:01:04;;;;;;;16.88;10.50;;;9.60;99.90;;;;;;6223667;23;20031;-88
2021/10/12 09:06:52;;;;;;;17.15;10.32;;;10.30;99.90;;;;;;6257775;23;20030;-88
2021/10/12 09:09:44;;;;;;;15.40;9.68;;;10.30;99.90;;;;;;6250788;23;20028;-89
2021/10/12 09:12:44;;;;;;;20.13;10.25;;;10.20;99.90;;;;;;6239255;23;20124;-87
2021/10/12 09:15:34;;;;;;;19.75;10.85;;;10.10;99.90;;;;;;6256519;23;20039;-89
2021/10/12 09:18:21;;;;;;;14.02;10.13;;;10.20;99.90;;;;;;6212145;23;20028;-89
2021/10/12 09:21:20;;;;;;;21.90;11.27;;;10.30;99.90;;;;;;6266077;22;20008;-90
2021/10/12 09:24:39;;;;;;;17.98;11.32;;;10.30;99.90;;;;;;6237595;23;20031;-91
2021/10/12 09:27:43;;;;;;;17.50;11.65;;;10.20;99.90;;;;;;6256397;23;20323;-90
2021/10/12 09:30:36;;;;;;;17.63;10.32;;;10.10;99.90;;;;;;6227024;23;20123;-91
2021/10/12 09:33:28;;;;;;;19.42;11.82;;;10.10;99.90;;;;;;6223337;23;20307;-91
2021/10/12 09:36:34;;;;;;;20.45;12.65;;;10.00;99.90;;;;;;6223089;23;20038;-90
2021/10/12 09:39:38;;;;;;;20.52;12.02;;;10.10;99.90;;;;;;6198426;23;20758;-90
2021/10/12 09:42:40;;;;;;;20.83;12.65;;;10.50;99.90;;;;;;6224860;23;20292;-90
2021/10/12 09:45:47;;;;;;;17.60;11.60;;;10.70;99.90;;;;;;6243307;23;20024;-87
2021/10/12 09:48:40;;;;;;;21.05;12.25;;;11.10;99.90;;;;;;6221541;23;20028;-90
2021/10/12 09:51:28;;;;;;;19.42;12.50;;;11.30;99.90;;;;;;6224508;23;20024;-90
2021/10/12 09:54:28;;;;;;;21.55;11.25;;;11.60;99.90;;;;;;6224648;23;20055;-91
2021/10/12 09:57:19;;;;;;;21.70;10.63;;;11.90;99.90;;;;;;6224892;23;20028;-91
2021/10/12 10:00:09;;;;;;;17.38;9.13;;;12.60;99.90;;;;;;6238726;23;20036;-88
2021/10/12 10:03:02;;;;;;;14.50;8.38;;;13.40;99.90;;;;;;6218154;23;20074;-90
2021/10/12 10:06:04;;;;;;;15.18;8.85;;;13.70;99.90;;;;;;6244602;23;20280;-89
2021/10/12 10:09:10;;;;;;;;;;;;;;;;;;;;;
2021/10/12 10:12:08;;;;;;;11.38;6.38;;;13.80;99.90;;;;;;6243544;23;20024;-91
2021/10/12 10:15:26;;;;;;;;;;;;;;;;;;;;;
2021/10/12 10:18:28;;;;;;;10.43;6.90;;;13.20;99.90;;;;;;6248482;23;20339;-88
2021/10/12 10:21:41;;;;;;;19.33;8.15;;;12.10;99.90;;;;;;6225728;23;20028;-89
2021/10/12 10:24:44;;;;;;;14.68;7.68;;;11.60;99.90;;;;;;6236490;23;20055;-92
2021/10/12 10:27:48;;;;;;;17.15;8.43;;;11.00;99.90;;;;;;6246271;23;20023;-89
2021/10/12 10:30:44;;;;;;;16.40;8.98;;;10.60;99.90;;;;;;6227903;23;20139;-89
2021/10/12 10:33:39;;;;;;;17.73;10.57;;;10.20;99.90;;;;;;6236847;23;20441;-90
2021/10/12 10:36:28;;;;;;;21.10;10.98;;;10.00;99.90;;;;;;6222438;23;20028;-90
2021/10/12 10:39:35;;;;;;;22.85;12.73;;;9.80;99.90;;;;;;6246424;23;20054;-91
2021/10/12 10:42:25;;;;;;;27.75;13.32;;;9.60;99.90;;;;;;6225353;23;20032;-90
2021/10/12 10:45:15;;;;;;;32.65;16.48;;;9.40;99.90;;;;;;6223323;23;20024;-89
2021/10/12 10:48:06;;;;;;;28.20;17.60;;;9.30;99.90;;;;;;6201692;23;20427;-89
2021/10/12 10:51:25;;;;;;;29.05;17.92;;;9.30;99.90;;;;;;6245449;23;20051;-89
2021/10/12 10:54:43;;;;;;;28.33;16.25;;;9.30;99.90;;;;;;6246166;23;20032;-90
2021/10/12 10:58:00;;;;;;;31.77;16.13;;;9.40;99.90;;;;;;6246581;23;20099;-90
2021/10/12 11:01:03;;;;;;;25.50;16.52;;;9.40;99.90;;;;;;6247784;23;20356;-90
2021/10/12 11:04:02;;;;;;;30.17;16.50;;;9.60;99.90;;;;;;6207650;23;20027;-90
2021/10/12 11:07:08;;;;;;;20.35;13.73;;;9.90;99.90;;;;;;6228056;23;20031;-91
2021/10/12 11:10:51;;;;;;;20.17;11.63;;;10.20;99.90;;;;;;6244522;23;20035;-91
2021/10/12 11:13:47;;;;;;;16.40;11.35;;;10.40;99.90;;;;;;6246101;23;20462;-91
2021/10/12 11:20:37;;;;;;;17.30;8.68;;;10.90;99.90;;;;;;6242897;23;20306;-90
2021/10/12 11:24:12;;;;;;;;;;;;;;;;;;;;;
2021/10/12 11:34:35;;;;;;;;;;;;;;;;;;;;;
2021/10/12 11:37:39;;;;;;;;;;;;;;;;;;;;;
2021/10/12 11:40:59;;;;;;;;;;;11.20;99.90;;;;;;6154099;23;20310;-89
2021/10/12 11:43:47;;;;;;;10.90;5.43;;;11.30;99.90;;;;;;6156948;23;20284;-90
2021/10/12 11:47:03;;;;;;;7.65;5.00;;;11.30;99.90;;;;;;6023991;23;20043;-90
2021/10/12 11:50:06;;;;;;;9.52;5.40;;;11.10;99.90;;;;;;6014706;23;20027;-85
2021/10/12 11:52:56;;;;;;;10.35;6.00;;;11.00;99.90;;;;;;6087264;23;20202;-85
2021/10/12 11:55:46;;;;;;;14.13;6.07;;;10.80;99.90;;;;;;6072880;23;20030;-84
2021/10/12 11:58:34;;;;;;;14.00;5.93;;;10.80;99.90;;;;;;6092837;23;20077;-83
2021/10/12 12:01:39;;;;;;;14.45;6.18;;;10.70;99.90;;;;;;6091932;23;20264;-85
2021/10/12 12:04:32;;;;;;;10.30;5.70;;;10.60;99.90;;;;;;6146033;23;20024;-85
2021/10/12 12:07:22;;;;;;;12.80;6.20;;;10.50;99.90;;;;;;6242425;23;20028;-84
2021/10/12 12:10:14;;;;;;;16.58;6.18;;;10.30;99.90;;;;;;6219806;23;20683;-87
2021/10/12 12:13:05;;;;;;;10.52;6.32;;;10.40;99.90;;;;;;6243964;23;20020;-86
2021/10/12 12:15:54;;;;;;;10.73;6.00;;;10.60;99.90;;;;;;6242882;23;20093;-89
2021/10/12 12:18:44;;;;;;;12.45;5.72;;;10.80;99.90;;;;;;6222773;23;20321;-89
2021/10/12 12:21:33;;;;;;;12.90;5.25;;;11.10;99.90;;;;;;6243756;23;20024;-88
2021/10/12 12:24:22;;;;;;;12.52;4.65;;;11.30;99.90;;;;;;6224107;23;20024;-90
2021/10/12 12:27:25;;;;;;;9.82;4.50;;;11.60;99.90;;;;;;6224467;23;20032;-87
2021/10/12 12:30:13;;;;;;;9.20;4.57;;;11.90;99.90;;;;;;6241977;23;20150;-86
2021/10/12 12:33:03;;;;;;;13.10;4.15;;;12.20;99.90;;;;;;6242095;23;20119;-90
2021/10/12 12:35:56;;;;;;;7.30;4.20;;;12.40;99.90;;;;;;6245644;22;20036;-88
2021/10/12 12:39:09;;;;;;;9.10;4.65;;;12.40;99.90;;;;;;6237969;23;20320;-90
2021/10/12 12:41:57;;;;;;;10.82;4.55;;;12.30;99.90;;;;;;6240913;23;20074;-86
2021/10/12 12:45:04;;;;;;;10.73;4.90;;;12.30;99.90;;;;;;6199255;23;20331;-87
2021/10/12 12:48:05;;;;;;;14.07;5.68;;;12.30;99.90;;;;;;6245239;23;20024;-88
2021/10/12 12:51:09;;;;;;;6.20;3.55;;;12.30;99.90;;;;;;6222098;23;20043;-90
2021/10/12 12:53:59;;;;;;;11.00;4.70;;;12.20;99.90;;;;;;6222731;23;20024;-88
2021/10/12 12:57:10;;;;;;;5.57;4.03;;;12.30;99.90;;;;;;6258301;23;20092;-88
2021/10/12 13:00:27;;;;;;;10.02;4.43;;;12.90;99.90;;;;;;6237982;23;20052;-89
2021/10/12 13:03:15;;;;;;;9.38;4.30;;;13.20;99.90;;;;;;6242091;23;20027;-87
2021/10/12 13:06:03;;;;;;;6.07;4.43;;;12.90;99.90;;;;;;6220916;23;20337;-87
2021/10/12 13:08:55;;;;;;;10.10;5.10;;;12.60;99.90;;;;;;6244751;23;20299;-88
2021/10/12 13:11:47;;;;;;;12.10;4.25;;;12.50;99.90;;;;;;6222494;23;20028;-88
2021/10/12 13:14:34;;;;;;;10.23;3.92;;;12.80;99.90;;;;;;6223452;23;20078;-91
2021/10/12 13:17:35;;;;;;;5.63;3.50;;;13.30;99.90;;;;;;6242820;23;20024;-87
2021/10/12 13:20:51;;;;;;;8.98;4.45;;;13.60;99.90;;;;;;6223452;23;20030;-91
2021/10/12 13:23:47;;;;;;;12.43;4.03;;;13.50;99.90;;;;;;6223290;23;20473;-88
2021/10/12 13:26:37;;;;;;;8.80;3.88;;;13.30;99.90;;;;;;6206154;23;20043;-91
2021/10/12 13:29:30;;;;;;;9.02;3.90;;;13.10;99.90;;;;;;6223008;23;20020;-90
2021/10/12 13:32:18;;;;;;;7.95;3.63;;;13.00;99.90;;;;;;6245245;23;20020;-89
2021/10/12 13:35:06;;;;;;;7.75;3.60;;;12.90;99.90;;;;;;6221185;23;20020;-86
2021/10/12 13:37:54;;;;;;;10.35;3.95;;;12.50;99.90;;;;;;6242306;23;20122;-86
2021/10/12 13:40:41;;;;;;;10.25;4.22;;;12.00;99.90;;;;;;6222689;23;20024;-88
2021/10/12 13:43:31;;;;;;;12.10;3.63;;;11.60;99.90;;;;;;6222008;23;20339;-88
2021/10/12 13:46:24;;;;;;;7.72;3.53;;;11.40;99.90;;;;;;6245595;23;20024;-89
2021/10/12 13:49:48;;;;;;;;;;;;;;;;;;;;;
2021/10/12 13:52:43;;;;;;;8.10;3.47;;;11.40;99.90;;;;;;6121956;23;20662;-88
2021/10/12 13:55:32;;;;;;;7.47;3.10;;;11.60;99.90;;;;;;6121199;23;20030;-88
2021/10/12 13:58:24;;;;;;;7.93;3.70;;;11.90;99.90;;;;;;6122567;23;20104;-88
2021/10/12 14:01:24;;;;;;;9.88;3.80;;;12.00;99.90;;;;;;6104242;23;20038;-89
2021/10/12 14:04:29;;;;;;;5.38;3.15;;;12.00;99.90;;;;;;6104746;23;20136;-90
2021/10/12 14:07:24;;;;;;;8.18;3.00;;;12.00;99.90;;;;;;6196548;23;20047;-88
2021/10/12 14:10:11;;;;;;;14.85;3.83;;;12.00;99.90;;;;;;6224181;23;20020;-87
2021/10/12 14:13:09;;;;;;;8.25;3.35;;;12.10;99.90;;;;;;6224799;23;20030;-87
2021/10/12 14:16:03;;;;;;;10.55;4.25;;;12.10;99.90;;;;;;6243734;23;20103;-89
2021/10/12 14:19:41;;;;;;;;;;;;;;;;;;;;;
2021/10/12 14:22:42;;;;;;;6.97;3.53;;;11.70;99.90;;;;;;6248080;23;20043;-89
2021/10/12 14:25:29;;;;;;;9.25;4.65;;;11.50;99.90;;;;;;6247994;23;20055;-90
2021/10/12 14:28:31;;;;;;;12.65;4.80;;;11.50;99.90;;;;;;6229750;23;20035;-89
2021/10/12 14:31:28;;;;;;;10.45;4.63;;;11.30;99.90;;;;;;6244367;23;20030;-90
2021/10/12 14:34:17;;;;;;;10.55;4.75;;;11.30;99.90;;;;;;6245364;23;20089;-88
2021/10/12 14:37:10;;;;;;;13.82;5.00;;;11.20;99.90;;;;;;6246080;23;20028;-90
2021/10/12 14:40:05;;;;;;;11.32;5.00;;;11.10;99.90;;;;;;6228485;23;20106;-89
2021/10/12 14:42:53;;;;;;;14.13;4.70;;;11.10;99.90;;;;;;6226201;23;20112;-89
2021/10/12 14:45:40;;;;;;;12.10;4.85;;;11.10;99.90;;;;;;6229489;23;20108;-88
2021/10/12 14:48:28;;;;;;;8.25;4.25;;;11.00;99.90;;;;;;6251029;23;20024;-89
2021/10/12 14:51:21;;;;;;;11.10;4.20;;;11.10;99.90;;;;;;6225834;23;20024;-90
2021/10/12 14:54:09;;;;;;;14.95;4.32;;;10.90;99.90;;;;;;6246725;23;20030;-89
2021/10/12 14:56:57;;;;;;;13.05;4.25;;;10.90;99.90;;;;;;6223380;23;20024;-88
2021/10/12 14:59:47;;;;;;;8.48;4.00;;;10.90;99.90;;;;;;6247648;23;20499;-86
2021/10/12 15:02:35;;;;;;;11.82;4.57;;;10.90;99.90;;;;;;6223962;23;20040;-88
2021/10/12 15:05:25;;;;;;;12.85;4.10;;;10.80;99.90;;;;;;6222693;23;20103;-87
2021/10/12 15:08:16;;;;;;;10.55;3.97;;;10.80;99.90;;;;;;6242934;23;20025;-89
2021/10/12 15:11:06;;;;;;;10.93;4.15;;;10.70;99.90;;;;;;6224384;23;20293;-88
2021/10/12 15:13:53;;;;;;;11.57;4.50;;;10.70;99.90;;;;;;6221913;23;20020;-89
2021/10/12 15:16:45;;;;;;;11.70;3.80;;;10.60;99.90;;;;;;6192694;23;20029;-86
2021/10/12 15:19:33;;;;;;;10.90;4.40;;;10.50;99.90;;;;;;6191583;23;20036;-89
2021/10/12 15:22:20;;;;;;;10.93;4.32;;;10.50;99.90;;;;;;6215334;23;20082;-88
2021/10/12 15:25:08;;;;;;;8.73;4.18;;;10.50;99.90;;;;;;6214153;23;20036;-87
2021/10/12 15:27:55;;;;;;;9.13;4.30;;;10.40;99.90;;;;;;6213325;23;20349;-89